Dewitt, Arkansas
Current Conditions -  °F | °C
As of 2:55 AM on Sunday 26 Oct 2014 (Local Time) from KSGT Reporting Station
Clear Clear  
Wind Chill: 63°   Ceiling: Unl
Heat Index: 63°   Visibility: 2.5mi
Dew Point: 59°   Wind: 8mph
Humidity: 88%   Direction: 210°SSW
Pressure: 30.01"   Gusts: NA
Location:  34.1937°N, 91.3321°W
Report Text: KSGT 260755Z AUTO 21007KT 2 1/2SM CLR 17/15 A3001 RMK AO1
Loading
Personal Weather Stations






























Interactive Weather Map
Tropical Storm Tracking
New forecast layout! Learn more

10-Day Weather Forecast

Advertisements
Track Severe Weather on mobile